地図

経路データ

SID SEASON NUMBER BASIN SUBBASIN NAME ISO_TIME NATURE LAT LON WMO_WIND WMO_PRES WMO_AGENCY TRACK_TYPE DIST2LAND LANDFALL IFLAG USA_AGENCY USA_ATCF_ID USA_LAT USA_LON USA_RECORD USA_STATUS USA_WIND USA_PRES USA_SSHS USA_R34_NE USA_R34_SE USA_R34_SW USA_R34_NW USA_R50_NE USA_R50_SE USA_R50_SW USA_R50_NW USA_R64_NE USA_R64_SE USA_R64_SW USA_R64_NW USA_POCI USA_ROCI USA_RMW USA_EYE TOKYO_LAT TOKYO_LON TOKYO_GRADE TOKYO_WIND TOKYO_PRES TOKYO_R50_DIR TOKYO_R50_LONG TOKYO_R50_SHORT TOKYO_R30_DIR TOKYO_R30_LONG TOKYO_R30_SHORT TOKYO_LAND CMA_LAT CMA_LON CMA_CAT CMA_WIND CMA_PRES HKO_LAT HKO_LON HKO_CAT HKO_WIND HKO_PRES NEWDELHI_LAT NEWDELHI_LON NEWDELHI_GRADE NEWDELHI_WIND NEWDELHI_PRES NEWDELHI_CI NEWDELHI_DP NEWDELHI_POCI REUNION_LAT REUNION_LON REUNION_TYPE REUNION_WIND REUNION_PRES REUNION_TNUM REUNION_CI REUNION_RMW REUNION_R34_NE REUNION_R34_SE REUNION_R34_SW REUNION_R34_NW REUNION_R50_NE REUNION_R50_SE REUNION_R50_SW REUNION_R50_NW REUNION_R64_NE REUNION_R64_SE REUNION_R64_SW REUNION_R64_NW BOM_LAT BOM_LON BOM_TYPE BOM_WIND BOM_PRES BOM_TNUM BOM_CI BOM_RMW BOM_R34_NE BOM_R34_SE BOM_R34_SW BOM_R34_NW BOM_R50_NE BOM_R50_SE BOM_R50_SW BOM_R50_NW BOM_R64_NE BOM_R64_SE BOM_R64_SW BOM_R64_NW BOM_ROCI BOM_POCI BOM_EYE BOM_POS_METHOD BOM_PRES_METHOD NADI_LAT NADI_LON NADI_CAT NADI_WIND NADI_PRES WELLINGTON_LAT WELLINGTON_LON WELLINGTON_WIND WELLINGTON_PRES DS824_LAT DS824_LON DS824_STAGE DS824_WIND DS824_PRES TD9636_LAT TD9636_LON TD9636_STAGE TD9636_WIND TD9636_PRES TD9635_LAT TD9635_LON TD9635_WIND TD9635_PRES TD9635_ROCI NEUMANN_LAT NEUMANN_LON NEUMANN_CLASS NEUMANN_WIND NEUMANN_PRES MLC_LAT MLC_LON MLC_CLASS MLC_WIND MLC_PRES USA_GUST BOM_GUST BOM_GUST_PER REUNION_GUST REUNION_GUST_PER USA_SEAHGT USA_SEARAD_NE USA_SEARAD_SE USA_SEARAD_SW USA_SEARAD_NW STORM_SPEED STORM_DIR
1979298N12283 1979 103 NA CS NOT_NAMED 1979-10-24 12:00:00 TS 12.0000 -77.0000 20 hurdat_atl main 226 226 O_____________ hurdat_atl AL191979 12.0000 -77.0000 TD 20 -1 6 327
1979298N12283 1979 103 NA CS NOT_NAMED 1979-10-24 15:00:00 TS 12.2325 -77.1524 main 257 257 P_____________ AL191979 12.2325 -77.1524 TD 22 -1 6 330
1979298N12283 1979 103 NA CS NOT_NAMED 1979-10-24 18:00:00 TS 12.5000 -77.3000 25 hurdat_atl main 289 289 O_____________ hurdat_atl AL191979 12.5000 -77.3000 TD 25 -1 7 335
1979298N12283 1979 103 NA CS NOT_NAMED 1979-10-24 21:00:00 TS 12.8275 -77.4426 main 320 320 P_____________ AL191979 12.8275 -77.4426 TD 25 -1 8 337
1979298N12283 1979 103 NA CS NOT_NAMED 1979-10-25 00:00:00 TS 13.2000 -77.6000 25 hurdat_atl main 367 367 O_____________ hurdat_atl AL191979 13.2000 -77.6000 TD 25 -1 8 335
1979298N12283 1979 103 NA CS NOT_NAMED 1979-10-25 03:00:00 TS 13.5925 -77.8074 main 414 414 P_____________ AL191979 13.5925 -77.8074 TD 25 -1 9 334
1979298N12283 1979 103 NA CS NOT_NAMED 1979-10-25 06:00:00 TS 14.0000 -78.0000 25 hurdat_atl main 422 381 O_____________ hurdat_atl AL191979 14.0000 -78.0000 TD 25 -1 9 340
1979298N12283 1979 103 NA CS NOT_NAMED 1979-10-25 09:00:00 TS 14.4075 -78.1076 main 381 341 P_____________ AL191979 14.4075 -78.1076 TD 27 -1 8 346
1979298N12283 1979 103 NA CS NOT_NAMED 1979-10-25 12:00:00 TS 14.8000 -78.2000 30 hurdat_atl main 341 313 O_____________ hurdat_atl AL191979 14.8000 -78.2000 TD 30 -1 8 343
1979298N12283 1979 103 NA CS NOT_NAMED 1979-10-25 15:00:00 TS 15.1425 -78.3351 main 313 281 P_____________ AL191979 15.1425 -78.3351 TD 30 -1 8 337
1979298N12283 1979 103 NA CS NOT_NAMED 1979-10-25 18:00:00 TS 15.5000 -78.5000 30 hurdat_atl main 281 247 O_____________ hurdat_atl AL191979 15.5000 -78.5000 TD 30 -1 9 336
1979298N12283 1979 103 NA CS NOT_NAMED 1979-10-25 21:00:00 TS 15.9425 -78.6999 main 247 208 P_____________ AL191979 15.9425 -78.6999 TD 30 -1 10 337
1979298N12283 1979 103 NA CS NOT_NAMED 1979-10-26 00:00:00 TS 16.4000 -78.9000 30 hurdat_atl main 208 169 O_____________ hurdat_atl AL191979 16.4000 -78.9000 TD 30 -1 9 340
1979298N12283 1979 103 NA CS NOT_NAMED 1979-10-26 03:00:00 TS 16.8073 -79.0204 main 169 140 P_____________ AL191979 16.8073 -79.0204 TD 30 -1 9 340
1979298N12283 1979 103 NA CS NOT_NAMED 1979-10-26 06:00:00 TS 17.2000 -79.2000 30 hurdat_atl main 140 130 O_____________ hurdat_atl AL191979 17.2000 -79.2000 TD 30 -1 10 328
1979298N12283 1979 103 NA CS NOT_NAMED 1979-10-26 09:00:00 TS 17.6677 -79.5844 main 138 138 P_____________ AL191979 17.6677 -79.5844 TD 30 -1 11 316
1979298N12283 1979 103 NA CS NOT_NAMED 1979-10-26 12:00:00 TS 18.0000 -80.0000 30 hurdat_atl main 170 170 O_____________ hurdat_atl AL191979 18.0000 -80.0000 TD 30 -1 8 299
1979298N12283 1979 103 NA CS NOT_NAMED 1979-10-26 15:00:00 TS 18.0324 -80.2728 main 202 202 P_____________ AL191979 18.0324 -80.2728 TD 27 -1 5 258
1979298N12283 1979 103 NA CS NOT_NAMED 1979-10-26 18:00:00 TS 17.9000 -80.5000 25 hurdat_atl main 224 224 O_____________ hurdat_atl AL191979 17.9000 -80.5000 TD 25 -1 5 239
1979298N12283 1979 103 NA CS NOT_NAMED 1979-10-26 21:00:00 TS 17.7649 -80.7425 main 247 247 P_____________ AL191979 17.7649 -80.7425 TD 25 -1 6 238
1979298N12283 1979 103 NA CS NOT_NAMED 1979-10-27 00:00:00 TS 17.6000 -81.0000 25 hurdat_atl main 283 283 O_____________ hurdat_atl AL191979 17.6000 -81.0000 TD 25 -1 6 240
1979298N12283 1979 103 NA CS NOT_NAMED 1979-10-27 03:00:00 TS 17.4575 -81.3075 main 316 295 P_____________ AL191979 17.4575 -81.3075 TD 25 -1 6 242
1979298N12283 1979 103 NA CS NOT_NAMED 1979-10-27 06:00:00 TS 17.3000 -81.6000 25 hurdat_atl main 295 264 O_____________ hurdat_atl AL191979 17.3000 -81.6000 TD 25 -1 6 235
1979298N12283 1979 103 NA CS NOT_NAMED 1979-10-27 09:00:00 TS 17.1000 -81.8375 main 264 233 P_____________ AL191979 17.1000 -81.8375 TD 25 -1 6 224
1979298N12283 1979 103 NA CS NOT_NAMED 1979-10-27 12:00:00 TS 16.9000 -82.0000 25 hurdat_atl main 233 217 O_____________ hurdat_atl AL191979 16.9000 -82.0000 TD 25 -1 4 211
1979298N12283 1979 103 NA CS NOT_NAMED 1979-10-27 15:00:00 TS 16.7424 -82.0574 main 209 201 P_____________ AL191979 16.7424 -82.0574 TD 25 -1 3 197
1979298N12283 1979 103 NA CS NOT_NAMED 1979-10-27 18:00:00 TS 16.6000 -82.1000 25 hurdat_atl main 201 185 O_____________ hurdat_atl AL191979 16.6000 -82.1000 TD 25 -1 3 211
1979298N12283 1979 103 NA CS NOT_NAMED 1979-10-27 21:00:00 TS 16.4500 -82.2425 main 185 154 P_____________ AL191979 16.4500 -82.2425 TD 25 -1 4 224
1979298N12283 1979 103 NA CS NOT_NAMED 1979-10-28 00:00:00 TS 16.3000 -82.4000 25 hurdat_atl main 154 139 O_____________ hurdat_atl AL191979 16.3000 -82.4000 TD 25 -1 4 219
1979298N12283 1979 103 NA CS NOT_NAMED 1979-10-28 03:00:00 TS 16.1425 -82.5000 main 131 116 P_____________ AL191979 16.1425 -82.5000 TD 25 -1 4 213
1979298N12283 1979 103 NA CS NOT_NAMED 1979-10-28 06:00:00 TS 16.0000 -82.6000 25 hurdat_atl main 116 100 O_____________ hurdat_atl AL191979 16.0000 -82.6000 TD 25 -1 3 226
1979298N12283 1979 103 NA CS NOT_NAMED 1979-10-28 09:00:00 TS 15.9075 -82.7575 main 92 77 P_____________ AL191979 15.9075 -82.7575 TD 25 -1 4 235
1979298N12283 1979 103 NA CS NOT_NAMED 1979-10-28 12:00:00 TS 15.8000 -82.9000 25 hurdat_atl main 77 54 O_____________ hurdat_atl AL191979 15.8000 -82.9000 TD 25 -1 4 214
1979298N12283 1979 103 NA CS NOT_NAMED 1979-10-28 15:00:00 TS 15.6150 -82.9575 main 54 44 P_____________ AL191979 15.6150 -82.9575 TD 25 -1 4 193
1979298N12283 1979 103 NA CS NOT_NAMED 1979-10-28 18:00:00 TS 15.4000 -83.0000 25 hurdat_atl main 44 22 O_____________ hurdat_atl AL191979 15.4000 -83.0000 TD 25 -1 4 195
1979298N12283 1979 103 NA CS NOT_NAMED 1979-10-28 21:00:00 TS 15.1850 -83.0775 main 22 0 P_____________ AL191979 15.1850 -83.0775 TD 22 -1 4 206
1979298N12283 1979 103 NA CS NOT_NAMED 1979-10-29 00:00:00 TS 15.0000 -83.2000 20 hurdat_atl main 0 0 O_____________ hurdat_atl AL191979 15.0000 -83.2000 TD 20 -1 4 228
1979298N12283 1979 103 NA CS NOT_NAMED 1979-10-29 03:00:00 TS 14.9000 -83.4000 main 0 0 P_____________ AL191979 14.9000 -83.4000 TD 20 -1 4 243
1979298N12283 1979 103 NA NA NOT_NAMED 1979-10-29 06:00:00 TS 14.8000 -83.6000 20 hurdat_atl main 0 0 O_____________ hurdat_atl AL191979 14.8000 -83.6000 TD 20 -1 4 229
1979298N12283 1979 103 NA NA NOT_NAMED 1979-10-29 09:00:00 TS 14.6250 -83.7250 main 0 0 P_____________ AL191979 14.6250 -83.7250 TD -1 4 206
1979298N12283 1979 103 NA NA NOT_NAMED 1979-10-29 12:00:00 TS 14.4000 -83.8000 hurdat_atl main 0 O_____________ hurdat_atl AL191979 14.4000 -83.8000 TD -1 5 196

IBTrACS Databaseについて

本データベースは、米国NOAAが公開する1842年以降の世界の熱帯低気圧のベストトラックデータアーカイブInternational Best Track Archive for Climate Stewardship (IBTrACS)を、ウェブで閲覧しやすい形式に変換したものです。

最終更新日:2021-12-03